sensor_id;sensor_type;location;lat;lon;timestamp;temperature;humidity
69546;SHT31;56766;52.260;20.746;2022-09-09T00:00:15;13.80;74.97
69546;SHT31;56766;52.260;20.746;2022-09-09T00:03:17;13.69;74.98
69546;SHT31;56766;52.260;20.746;2022-09-09T00:12:47;13.38;75.71
69546;SHT31;56766;52.260;20.746;2022-09-09T00:15:19;13.30;76.05
69546;SHT31;56766;52.260;20.746;2022-09-09T00:17:58;13.23;76.27
69546;SHT31;56766;52.260;20.746;2022-09-09T00:20:55;13.16;76.63
69546;SHT31;56766;52.260;20.746;2022-09-09T00:23:35;13.05;77.32
69546;SHT31;56766;52.260;20.746;2022-09-09T00:29:26;12.90;77.75
69546;SHT31;56766;52.260;20.746;2022-09-09T00:32:14;12.85;78.03
69546;SHT31;56766;52.260;20.746;2022-09-09T00:37:19;12.80;78.30
69546;SHT31;56766;52.260;20.746;2022-09-09T00:39:50;12.78;78.60
69546;SHT31;56766;52.260;20.746;2022-09-09T00:42:25;12.78;78.87
69546;SHT31;56766;52.260;20.746;2022-09-09T00:47:53;12.82;78.92
69546;SHT31;56766;52.260;20.746;2022-09-09T00:54:28;12.80;79.31
69546;SHT31;56766;52.260;20.746;2022-09-09T00:57:30;12.80;79.31
69546;SHT31;56766;52.260;20.746;2022-09-09T01:00:19;12.80;79.47
69546;SHT31;56766;52.260;20.746;2022-09-09T01:03:19;12.78;79.28
69546;SHT31;56766;52.260;20.746;2022-09-09T01:06:37;12.79;79.44
69546;SHT31;56766;52.260;20.746;2022-09-09T01:09:05;12.81;79.41
69546;SHT31;56766;52.260;20.746;2022-09-09T01:17:13;12.82;79.73
69546;SHT31;56766;52.260;20.746;2022-09-09T01:22:53;12.78;79.95
69546;SHT31;56766;52.260;20.746;2022-09-09T01:28:19;12.76;80.04
69546;SHT31;56766;52.260;20.746;2022-09-09T01:30:49;12.73;80.12
69546;SHT31;56766;52.260;20.746;2022-09-09T01:33:18;12.70;80.47
69546;SHT31;56766;52.260;20.746;2022-09-09T01:36:08;12.66;80.60
69546;SHT31;56766;52.260;20.746;2022-09-09T01:38:40;12.66;80.60
69546;SHT31;56766;52.260;20.746;2022-09-09T01:41:07;12.66;80.76
69546;SHT31;56766;52.260;20.746;2022-09-09T01:43:34;12.69;81.01
69546;SHT31;56766;52.260;20.746;2022-09-09T01:46:01;12.70;81.14
69546;SHT31;56766;52.260;20.746;2022-09-09T01:48:29;12.70;81.13
69546;SHT31;56766;52.260;20.746;2022-09-09T01:50:56;12.70;81.01
69546;SHT31;56766;52.260;20.746;2022-09-09T01:53:24;12.72;80.95
69546;SHT31;56766;52.260;20.746;2022-09-09T01:55:56;12.76;80.92
69546;SHT31;56766;52.260;20.746;2022-09-09T01:58:31;12.81;80.84
69546;SHT31;56766;52.260;20.746;2022-09-09T02:04:27;12.85;80.82
69546;SHT31;56766;52.260;20.746;2022-09-09T02:10:09;12.88;80.81
69546;SHT31;56766;52.260;20.746;2022-09-09T02:12:50;12.89;80.81
69546;SHT31;56766;52.260;20.746;2022-09-09T02:17:58;12.87;80.88
69546;SHT31;56766;52.260;20.746;2022-09-09T02:20:32;12.90;80.99
69546;SHT31;56766;52.260;20.746;2022-09-09T02:23:01;12.88;81.03
69546;SHT31;56766;52.260;20.746;2022-09-09T02:25:29;12.93;80.98
69546;SHT31;56766;52.260;20.746;2022-09-09T02:27:56;12.95;81.05
69546;SHT31;56766;52.260;20.746;2022-09-09T02:30:29;12.93;80.94
69546;SHT31;56766;52.260;20.746;2022-09-09T02:33:04;12.93;81.08
69546;SHT31;56766;52.260;20.746;2022-09-09T02:35:35;12.92;81.09
69546;SHT31;56766;52.260;20.746;2022-09-09T02:38:10;12.92;81.12
69546;SHT31;56766;52.260;20.746;2022-09-09T02:40:39;12.94;81.18
69546;SHT31;56766;52.260;20.746;2022-09-09T02:43:06;12.94;81.25
69546;SHT31;56766;52.260;20.746;2022-09-09T02:48:47;12.93;81.33
69546;SHT31;56766;52.260;20.746;2022-09-09T02:51:48;12.93;81.50
69546;SHT31;56766;52.260;20.746;2022-09-09T02:54:32;12.95;81.58
69546;SHT31;56766;52.260;20.746;2022-09-09T02:57:22;12.93;81.60
69546;SHT31;56766;52.260;20.746;2022-09-09T02:59:57;12.92;81.83
69546;SHT31;56766;52.260;20.746;2022-09-09T03:02:25;12.88;81.88
69546;SHT31;56766;52.260;20.746;2022-09-09T03:04:52;12.87;82.09
69546;SHT31;56766;52.260;20.746;2022-09-09T03:07:20;12.86;82.01
69546;SHT31;56766;52.260;20.746;2022-09-09T03:09:47;12.88;82.10
69546;SHT31;56766;52.260;20.746;2022-09-09T03:12:15;12.88;82.03
69546;SHT31;56766;52.260;20.746;2022-09-09T03:14:42;12.87;82.08
69546;SHT31;56766;52.260;20.746;2022-09-09T03:17:11;12.87;82.14
69546;SHT31;56766;52.260;20.746;2022-09-09T03:19:38;12.87;82.13
69546;SHT31;56766;52.260;20.746;2022-09-09T03:22:06;12.91;82.26
69546;SHT31;56766;52.260;20.746;2022-09-09T03:24:32;12.90;82.20
69546;SHT31;56766;52.260;20.746;2022-09-09T03:26:59;12.89;82.37
69546;SHT31;56766;52.260;20.746;2022-09-09T03:29:26;12.89;82.31
69546;SHT31;56766;52.260;20.746;2022-09-09T03:31:52;12.89;82.21
69546;SHT31;56766;52.260;20.746;2022-09-09T03:34:19;12.90;82.31
69546;SHT31;56766;52.260;20.746;2022-09-09T03:36:46;12.92;82.31
69546;SHT31;56766;52.260;20.746;2022-09-09T03:39:14;12.95;82.34
69546;SHT31;56766;52.260;20.746;2022-09-09T03:41:41;12.96;82.37
69546;SHT31;56766;52.260;20.746;2022-09-09T03:44:08;12.98;82.37
69546;SHT31;56766;52.260;20.746;2022-09-09T03:46:35;12.97;82.30
69546;SHT31;56766;52.260;20.746;2022-09-09T03:49:01;12.95;82.38
69546;SHT31;56766;52.260;20.746;2022-09-09T03:51:28;12.95;82.47
69546;SHT31;56766;52.260;20.746;2022-09-09T03:53:55;12.99;82.51
69546;SHT31;56766;52.260;20.746;2022-09-09T03:56:23;13.03;82.41
69546;SHT31;56766;52.260;20.746;2022-09-09T03:58:50;13.01;82.42
69546;SHT31;56766;52.260;20.746;2022-09-09T04:01:16;12.99;82.41
69546;SHT31;56766;52.260;20.746;2022-09-09T04:03:44;13.01;82.43
69546;SHT31;56766;52.260;20.746;2022-09-09T04:06:14;13.06;82.43
69546;SHT31;56766;52.260;20.746;2022-09-09T04:08:41;13.05;82.46
69546;SHT31;56766;52.260;20.746;2022-09-09T04:11:08;13.03;82.41
69546;SHT31;56766;52.260;20.746;2022-09-09T04:13:37;13.01;82.56
69546;SHT31;56766;52.260;20.746;2022-09-09T04:16:10;13.02;82.60
69546;SHT31;56766;52.260;20.746;2022-09-09T04:18:39;12.99;82.79
69546;SHT31;56766;52.260;20.746;2022-09-09T04:21:06;12.98;82.86
69546;SHT31;56766;52.260;20.746;2022-09-09T04:23:34;13.02;82.83
69546;SHT31;56766;52.260;20.746;2022-09-09T04:26:03;13.03;82.76
69546;SHT31;56766;52.260;20.746;2022-09-09T04:28:33;13.03;82.81
69546;SHT31;56766;52.260;20.746;2022-09-09T04:31:11;13.08;82.81
69546;SHT31;56766;52.260;20.746;2022-09-09T04:33:49;13.11;82.69
69546;SHT31;56766;52.260;20.746;2022-09-09T04:36:19;13.14;82.74
69546;SHT31;56766;52.260;20.746;2022-09-09T04:38:46;13.19;82.61
69546;SHT31;56766;52.260;20.746;2022-09-09T04:41:15;13.19;82.60
69546;SHT31;56766;52.260;20.746;2022-09-09T04:43:43;13.20;82.66
69546;SHT31;56766;52.260;20.746;2022-09-09T04:46:10;13.23;82.64
69546;SHT31;56766;52.260;20.746;2022-09-09T04:48:37;13.22;82.67
69546;SHT31;56766;52.260;20.746;2022-09-09T04:51:06;13.23;82.66
69546;SHT31;56766;52.260;20.746;2022-09-09T04:53:35;13.26;82.63
69546;SHT31;56766;52.260;20.746;2022-09-09T04:56:07;13.28;82.61
69546;SHT31;56766;52.260;20.746;2022-09-09T04:58:37;13.32;82.58
69546;SHT31;56766;52.260;20.746;2022-09-09T05:01:10;13.29;82.71
69546;SHT31;56766;52.260;20.746;2022-09-09T05:03:45;13.26;82.83
69546;SHT31;56766;52.260;20.746;2022-09-09T05:06:15;13.30;82.79
69546;SHT31;56766;52.260;20.746;2022-09-09T05:08:45;13.32;82.71
69546;SHT31;56766;52.260;20.746;2022-09-09T05:11:18;13.35;82.65
69546;SHT31;56766;52.260;20.746;2022-09-09T05:13:53;13.35;82.73
69546;SHT31;56766;52.260;20.746;2022-09-09T05:16:21;13.33;82.80
69546;SHT31;56766;52.260;20.746;2022-09-09T05:18:50;13.37;82.84
69546;SHT31;56766;52.260;20.746;2022-09-09T05:21:19;13.38;82.76
69546;SHT31;56766;52.260;20.746;2022-09-09T05:23:49;13.42;82.67
69546;SHT31;56766;52.260;20.746;2022-09-09T05:26:20;13.45;82.60
69546;SHT31;56766;52.260;20.746;2022-09-09T05:28:48;13.48;82.62
69546;SHT31;56766;52.260;20.746;2022-09-09T05:31:17;13.48;82.63
69546;SHT31;56766;52.260;20.746;2022-09-09T05:33:47;13.51;82.65
69546;SHT31;56766;52.260;20.746;2022-09-09T05:36:18;13.54;82.66
69546;SHT31;56766;52.260;20.746;2022-09-09T05:38:47;13.54;82.68
69546;SHT31;56766;52.260;20.746;2022-09-09T05:41:17;13.53;82.72
69546;SHT31;56766;52.260;20.746;2022-09-09T05:43:45;13.54;82.74
69546;SHT31;56766;52.260;20.746;2022-09-09T05:46:24;13.61;82.67
69546;SHT31;56766;52.260;20.746;2022-09-09T05:48:52;13.62;82.62
69546;SHT31;56766;52.260;20.746;2022-09-09T05:51:25;13.61;82.67
69546;SHT31;56766;52.260;20.746;2022-09-09T05:53:54;13.61;82.67
69546;SHT31;56766;52.260;20.746;2022-09-09T05:56:27;13.66;82.63
69546;SHT31;56766;52.260;20.746;2022-09-09T05:58:56;13.73;82.67
69546;SHT31;56766;52.260;20.746;2022-09-09T06:01:31;13.74;82.66
69546;SHT31;56766;52.260;20.746;2022-09-09T06:03:59;13.77;82.67
69546;SHT31;56766;52.260;20.746;2022-09-09T06:06:35;13.80;82.65
69546;SHT31;56766;52.260;20.746;2022-09-09T06:09:05;13.85;82.58
69546;SHT31;56766;52.260;20.746;2022-09-09T06:11:38;13.89;82.52
69546;SHT31;56766;52.260;20.746;2022-09-09T06:14:06;13.86;82.57
69546;SHT31;56766;52.260;20.746;2022-09-09T06:16:34;13.86;82.75
69546;SHT31;56766;52.260;20.746;2022-09-09T06:19:01;13.93;82.64
69546;SHT31;56766;52.260;20.746;2022-09-09T06:21:36;13.96;82.65
69546;SHT31;56766;52.260;20.746;2022-09-09T06:24:04;14.02;82.68
69546;SHT31;56766;52.260;20.746;2022-09-09T06:26:38;14.12;82.58
69546;SHT31;56766;52.260;20.746;2022-09-09T06:29:09;14.25;82.44
69546;SHT31;56766;52.260;20.746;2022-09-09T06:31:36;14.32;82.37
69546;SHT31;56766;52.260;20.746;2022-09-09T06:34:06;14.41;82.23
69546;SHT31;56766;52.260;20.746;2022-09-09T06:36:36;14.47;82.12
69546;SHT31;56766;52.260;20.746;2022-09-09T06:39:05;14.48;81.92
69546;SHT31;56766;52.260;20.746;2022-09-09T06:41:34;14.47;82.01
69546;SHT31;56766;52.260;20.746;2022-09-09T06:44:00;14.47;81.89
69546;SHT31;56766;52.260;20.746;2022-09-09T06:46:30;14.48;81.78
69546;SHT31;56766;52.260;20.746;2022-09-09T06:48:59;14.48;81.80
69546;SHT31;56766;52.260;20.746;2022-09-09T06:51:33;14.50;81.69
69546;SHT31;56766;52.260;20.746;2022-09-09T06:54:02;14.46;81.74
69546;SHT31;56766;52.260;20.746;2022-09-09T06:56:36;14.43;81.73
69546;SHT31;56766;52.260;20.746;2022-09-09T06:59:09;14.46;81.82
69546;SHT31;56766;52.260;20.746;2022-09-09T07:01:40;14.54;81.74
69546;SHT31;56766;52.260;20.746;2022-09-09T07:04:08;14.61;81.65
69546;SHT31;56766;52.260;20.746;2022-09-09T07:06:40;14.69;81.71
69546;SHT31;56766;52.260;20.746;2022-09-09T07:09:11;14.77;81.65
69546;SHT31;56766;52.260;20.746;2022-09-09T07:11:42;14.87;81.58
69546;SHT31;56766;52.260;20.746;2022-09-09T07:14:15;14.94;81.46
69546;SHT31;56766;52.260;20.746;2022-09-09T07:16:43;15.01;81.35
69546;SHT31;56766;52.260;20.746;2022-09-09T07:19:12;15.04;81.12
69546;SHT31;56766;52.260;20.746;2022-09-09T07:21:41;15.00;81.12
69546;SHT31;56766;52.260;20.746;2022-09-09T07:24:10;14.99;81.08
69546;SHT31;56766;52.260;20.746;2022-09-09T07:26:39;15.02;81.20
69546;SHT31;56766;52.260;20.746;2022-09-09T07:29:07;15.14;81.12
69546;SHT31;56766;52.260;20.746;2022-09-09T07:31:37;15.25;81.07
69546;SHT31;56766;52.260;20.746;2022-09-09T07:34:06;15.31;80.87
69546;SHT31;56766;52.260;20.746;2022-09-09T07:36:36;15.35;80.72
69546;SHT31;56766;52.260;20.746;2022-09-09T07:39:11;15.36;80.70
69546;SHT31;56766;52.260;20.746;2022-09-09T07:41:47;15.42;80.44
69546;SHT31;56766;52.260;20.746;2022-09-09T07:44:18;15.39;80.48
69546;SHT31;56766;52.260;20.746;2022-09-09T07:46:48;15.43;80.50
69546;SHT31;56766;52.260;20.746;2022-09-09T07:49:15;15.44;80.29
69546;SHT31;56766;52.260;20.746;2022-09-09T07:51:45;15.41;80.17
69546;SHT31;56766;52.260;20.746;2022-09-09T07:54:15;15.36;80.25
69546;SHT31;56766;52.260;20.746;2022-09-09T07:56:47;15.37;80.25
69546;SHT31;56766;52.260;20.746;2022-09-09T07:59:13;15.40;80.30
69546;SHT31;56766;52.260;20.746;2022-09-09T08:01:47;15.42;80.35
69546;SHT31;56766;52.260;20.746;2022-09-09T08:04:19;15.44;80.37
69546;SHT31;56766;52.260;20.746;2022-09-09T08:06:51;15.46;80.25
69546;SHT31;56766;52.260;20.746;2022-09-09T08:09:21;15.46;80.22
69546;SHT31;56766;52.260;20.746;2022-09-09T08:11:51;15.47;80.32
69546;SHT31;56766;52.260;20.746;2022-09-09T08:14:17;15.49;80.39
69546;SHT31;56766;52.260;20.746;2022-09-09T08:16:47;15.48;80.40
69546;SHT31;56766;52.260;20.746;2022-09-09T08:19:16;15.46;80.32
69546;SHT31;56766;52.260;20.746;2022-09-09T08:21:44;15.52;80.47
69546;SHT31;56766;52.260;20.746;2022-09-09T08:24:12;15.58;80.29
69546;SHT31;56766;52.260;20.746;2022-09-09T08:26:45;15.58;80.37
69546;SHT31;56766;52.260;20.746;2022-09-09T08:29:15;15.57;80.50
69546;SHT31;56766;52.260;20.746;2022-09-09T08:32:02;15.63;80.54
69546;SHT31;56766;52.260;20.746;2022-09-09T08:34:29;15.70;80.35
69546;SHT31;56766;52.260;20.746;2022-09-09T08:36:57;15.78;80.20
69546;SHT31;56766;52.260;20.746;2022-09-09T08:39:25;15.76;80.08
69546;SHT31;56766;52.260;20.746;2022-09-09T08:42:03;15.73;80.11
69546;SHT31;56766;52.260;20.746;2022-09-09T08:53:22;15.93;80.03
69546;SHT31;56766;52.260;20.746;2022-09-09T08:56:12;16.10;79.90
69546;SHT31;56766;52.260;20.746;2022-09-09T08:58:52;16.28;79.73
69546;SHT31;56766;52.260;20.746;2022-09-09T09:01:33;16.37;79.45
69546;SHT31;56766;52.260;20.746;2022-09-09T09:10:47;16.42;78.81
69546;SHT31;56766;52.260;20.746;2022-09-09T09:13:30;16.46;78.85
69546;SHT31;56766;52.260;20.746;2022-09-09T09:16:13;16.52;78.90
69546;SHT31;56766;52.260;20.746;2022-09-09T09:18:53;16.61;78.76
69546;SHT31;56766;52.260;20.746;2022-09-09T09:27:15;16.90;78.04
69546;SHT31;56766;52.260;20.746;2022-09-09T09:29:55;16.90;78.11
69546;SHT31;56766;52.260;20.746;2022-09-09T09:32:28;16.93;78.00
69546;SHT31;56766;52.260;20.746;2022-09-09T09:35:03;16.97;77.92
69546;SHT31;56766;52.260;20.746;2022-09-09T09:37:40;16.94;77.74
69546;SHT31;56766;52.260;20.746;2022-09-09T09:40:16;16.94;77.87
69546;SHT31;56766;52.260;20.746;2022-09-09T09:43:01;17.02;77.99
69546;SHT31;56766;52.260;20.746;2022-09-09T09:45:42;17.14;77.78
69546;SHT31;56766;52.260;20.746;2022-09-09T09:48:14;17.22;77.36
69546;SHT31;56766;52.260;20.746;2022-09-09T09:50:54;17.25;77.11
69546;SHT31;56766;52.260;20.746;2022-09-09T09:53:30;17.26;76.96
69546;SHT31;56766;52.260;20.746;2022-09-09T09:55:59;17.27;76.96
69546;SHT31;56766;52.260;20.746;2022-09-09T10:01:24;17.24;76.88
69546;SHT31;56766;52.260;20.746;2022-09-09T10:04:03;17.19;76.85
69546;SHT31;56766;52.260;20.746;2022-09-09T10:06:46;17.19;77.03
69546;SHT31;56766;52.260;20.746;2022-09-09T10:09:25;17.19;76.78
69546;SHT31;56766;52.260;20.746;2022-09-09T10:22:50;17.25;76.38
69546;SHT31;56766;52.260;20.746;2022-09-09T10:28:27;17.25;76.68
69546;SHT31;56766;52.260;20.746;2022-09-09T10:33:57;17.36;76.72
69546;SHT31;56766;52.260;20.746;2022-09-09T10:36:27;17.37;76.60
69546;SHT31;56766;52.260;20.746;2022-09-09T10:39:04;17.31;76.54
69546;SHT31;56766;52.260;20.746;2022-09-09T10:53:49;17.35;76.46
69546;SHT31;56766;52.260;20.746;2022-09-09T10:56:40;17.31;76.35
69546;SHT31;56766;52.260;20.746;2022-09-09T10:59:19;17.33;76.38
69546;SHT31;56766;52.260;20.746;2022-09-09T11:04:51;17.25;76.61
69546;SHT31;56766;52.260;20.746;2022-09-09T11:13:24;17.30;76.79
69546;SHT31;56766;52.260;20.746;2022-09-09T11:16:12;17.38;76.89
69546;SHT31;56766;52.260;20.746;2022-09-09T11:18:46;17.53;76.72
69546;SHT31;56766;52.260;20.746;2022-09-09T11:21:25;17.65;76.70
69546;SHT31;56766;52.260;20.746;2022-09-09T11:26:18;17.64;76.91
69546;SHT31;56766;52.260;20.746;2022-09-09T11:29:21;17.66;76.54
69546;SHT31;56766;52.260;20.746;2022-09-09T11:40:28;17.82;76.11
69546;SHT31;56766;52.260;20.746;2022-09-09T11:43:09;17.84;75.78
69546;SHT31;56766;52.260;20.746;2022-09-09T11:45:41;17.81;76.31
69546;SHT31;56766;52.260;20.746;2022-09-09T11:48:36;17.85;76.27
69546;SHT31;56766;52.260;20.746;2022-09-09T11:53:32;17.86;75.89
69546;SHT31;56766;52.260;20.746;2022-09-09T11:56:12;17.79;76.04
69546;SHT31;56766;52.260;20.746;2022-09-09T11:59:00;17.64;76.15
69546;SHT31;56766;52.260;20.746;2022-09-09T12:04:11;17.49;76.41
69546;SHT31;56766;52.260;20.746;2022-09-09T12:06:54;17.49;76.47
69546;SHT31;56766;52.260;20.746;2022-09-09T12:09:50;17.51;76.63
69546;SHT31;56766;52.260;20.746;2022-09-09T12:17:29;17.63;76.61
69546;SHT31;56766;52.260;20.746;2022-09-09T12:20:18;17.71;76.76
69546;SHT31;56766;52.260;20.746;2022-09-09T12:29:25;17.93;76.33
69546;SHT31;56766;52.260;20.746;2022-09-09T12:32:25;17.96;76.17
69546;SHT31;56766;52.260;20.746;2022-09-09T12:35:00;17.86;76.07
69546;SHT31;56766;52.260;20.746;2022-09-09T12:37:45;17.77;76.34
69546;SHT31;56766;52.260;20.746;2022-09-09T12:40:24;17.74;76.63
69546;SHT31;56766;52.260;20.746;2022-09-09T12:43:14;17.74;76.64
69546;SHT31;56766;52.260;20.746;2022-09-09T12:45:44;17.73;76.58
69546;SHT31;56766;52.260;20.746;2022-09-09T12:48:12;17.74;76.69
69546;SHT31;56766;52.260;20.746;2022-09-09T12:50:50;17.77;76.69
69546;SHT31;56766;52.260;20.746;2022-09-09T12:53:22;17.83;76.75
69546;SHT31;56766;52.260;20.746;2022-09-09T12:56:02;17.82;76.46
69546;SHT31;56766;52.260;20.746;2022-09-09T12:58:36;17.76;76.54
69546;SHT31;56766;52.260;20.746;2022-09-09T13:01:05;17.76;76.61
69546;SHT31;56766;52.260;20.746;2022-09-09T13:03:44;17.74;76.74
69546;SHT31;56766;52.260;20.746;2022-09-09T13:06:18;17.73;76.82
69546;SHT31;56766;52.260;20.746;2022-09-09T13:08:51;17.80;76.84
69546;SHT31;56766;52.260;20.746;2022-09-09T13:11:29;17.82;76.78
69546;SHT31;56766;52.260;20.746;2022-09-09T13:14:03;17.80;76.78
69546;SHT31;56766;52.260;20.746;2022-09-09T13:16:33;17.76;76.79
69546;SHT31;56766;52.260;20.746;2022-09-09T13:19:08;17.74;76.83
69546;SHT31;56766;52.260;20.746;2022-09-09T13:21:44;17.65;76.79
69546;SHT31;56766;52.260;20.746;2022-09-09T13:24:33;17.52;76.96
69546;SHT31;56766;52.260;20.746;2022-09-09T13:27:04;17.47;77.19
69546;SHT31;56766;52.260;20.746;2022-09-09T13:29:53;17.50;77.33
69546;SHT31;56766;52.260;20.746;2022-09-09T13:32:24;17.55;77.43
69546;SHT31;56766;52.260;20.746;2022-09-09T13:34:58;17.58;77.49
69546;SHT31;56766;52.260;20.746;2022-09-09T13:37:37;17.62;77.45
69546;SHT31;56766;52.260;20.746;2022-09-09T13:40:19;17.68;77.46
69546;SHT31;56766;52.260;20.746;2022-09-09T13:42:57;17.67;77.41
69546;SHT31;56766;52.260;20.746;2022-09-09T13:45:26;17.63;77.39
69546;SHT31;56766;52.260;20.746;2022-09-09T13:47:54;17.53;77.36
69546;SHT31;56766;52.260;20.746;2022-09-09T13:50:28;17.43;77.61
69546;SHT31;56766;52.260;20.746;2022-09-09T13:52:59;17.39;77.66
69546;SHT31;56766;52.260;20.746;2022-09-09T13:55:36;17.36;77.81
69546;SHT31;56766;52.260;20.746;2022-09-09T13:58:04;17.35;77.87
69546;SHT31;56766;52.260;20.746;2022-09-09T14:00:34;17.31;77.96
69546;SHT31;56766;52.260;20.746;2022-09-09T14:03:01;17.29;78.01
69546;SHT31;56766;52.260;20.746;2022-09-09T14:05:30;17.29;78.09
69546;SHT31;56766;52.260;20.746;2022-09-09T14:07:59;17.27;78.20
69546;SHT31;56766;52.260;20.746;2022-09-09T14:10:27;17.26;78.25
69546;SHT31;56766;52.260;20.746;2022-09-09T14:12:53;17.27;78.36
69546;SHT31;56766;52.260;20.746;2022-09-09T14:15:20;17.29;78.41
69546;SHT31;56766;52.260;20.746;2022-09-09T14:17:48;17.35;78.50
69546;SHT31;56766;52.260;20.746;2022-09-09T14:20:15;17.41;78.37
69546;SHT31;56766;52.260;20.746;2022-09-09T14:22:43;17.50;78.43
69546;SHT31;56766;52.260;20.746;2022-09-09T14:25:10;17.66;78.32
69546;SHT31;56766;52.260;20.746;2022-09-09T14:27:39;17.86;78.09
69546;SHT31;56766;52.260;20.746;2022-09-09T14:30:07;18.01;77.83
69546;SHT31;56766;52.260;20.746;2022-09-09T14:32:35;18.13;77.71
69546;SHT31;56766;52.260;20.746;2022-09-09T14:35:01;18.18;77.33
69546;SHT31;56766;52.260;20.746;2022-09-09T14:37:28;18.16;77.33
69546;SHT31;56766;52.260;20.746;2022-09-09T14:39:57;18.10;77.17
69546;SHT31;56766;52.260;20.746;2022-09-09T14:42:24;18.08;77.21
69546;SHT31;56766;52.260;20.746;2022-09-09T14:44:52;18.10;77.16
69546;SHT31;56766;52.260;20.746;2022-09-09T14:47:19;18.06;77.14
69546;SHT31;56766;52.260;20.746;2022-09-09T14:49:45;17.99;77.10
69546;SHT31;56766;52.260;20.746;2022-09-09T14:52:12;17.90;77.16
69546;SHT31;56766;52.260;20.746;2022-09-09T14:54:39;17.84;77.24
69546;SHT31;56766;52.260;20.746;2022-09-09T14:57:06;17.75;77.31
69546;SHT31;56766;52.260;20.746;2022-09-09T14:59:33;17.65;77.49
69546;SHT31;56766;52.260;20.746;2022-09-09T15:02:00;17.57;77.64
69546;SHT31;56766;52.260;20.746;2022-09-09T15:04:30;17.55;77.73
69546;SHT31;56766;52.260;20.746;2022-09-09T15:06:56;17.54;77.89
69546;SHT31;56766;52.260;20.746;2022-09-09T15:09:24;17.51;78.06
69546;SHT31;56766;52.260;20.746;2022-09-09T15:11:51;17.52;78.16
69546;SHT31;56766;52.260;20.746;2022-09-09T15:14:18;17.54;78.13
69546;SHT31;56766;52.260;20.746;2022-09-09T15:16:44;17.53;78.28
69546;SHT31;56766;52.260;20.746;2022-09-09T15:19:11;17.50;78.25
69546;SHT31;56766;52.260;20.746;2022-09-09T15:21:38;17.44;78.29
69546;SHT31;56766;52.260;20.746;2022-09-09T15:24:05;17.47;78.46
69546;SHT31;56766;52.260;20.746;2022-09-09T15:26:34;17.52;78.28
69546;SHT31;56766;52.260;20.746;2022-09-09T15:29:05;17.51;78.26
69546;SHT31;56766;52.260;20.746;2022-09-09T15:31:34;17.47;78.24
69546;SHT31;56766;52.260;20.746;2022-09-09T15:34:05;17.41;78.31
69546;SHT31;56766;52.260;20.746;2022-09-09T15:36:38;17.40;78.33
69546;SHT31;56766;52.260;20.746;2022-09-09T15:39:09;17.35;78.37
69546;SHT31;56766;52.260;20.746;2022-09-09T15:41:39;17.27;78.43
69546;SHT31;56766;52.260;20.746;2022-09-09T15:44:07;17.17;78.61
69546;SHT31;56766;52.260;20.746;2022-09-09T15:46:37;17.11;78.80
69546;SHT31;56766;52.260;20.746;2022-09-09T15:49:12;17.07;78.85
69546;SHT31;56766;52.260;20.746;2022-09-09T15:51:47;17.04;78.97
69546;SHT31;56766;52.260;20.746;2022-09-09T15:54:19;16.98;78.97
69546;SHT31;56766;52.260;20.746;2022-09-09T15:56:52;16.90;79.17
69546;SHT31;56766;52.260;20.746;2022-09-09T15:59:25;16.93;79.20
69546;SHT31;56766;52.260;20.746;2022-09-09T16:01:57;16.95;79.14
69546;SHT31;56766;52.260;20.746;2022-09-09T16:04:27;16.96;79.24
69546;SHT31;56766;52.260;20.746;2022-09-09T16:07:03;16.98;79.24
69546;SHT31;56766;52.260;20.746;2022-09-09T16:09:33;16.93;79.21
69546;SHT31;56766;52.260;20.746;2022-09-09T16:12:03;16.91;79.30
69546;SHT31;56766;52.260;20.746;2022-09-09T16:14:36;16.93;79.35
69546;SHT31;56766;52.260;20.746;2022-09-09T16:17:04;16.90;79.30
69546;SHT31;56766;52.260;20.746;2022-09-09T16:19:32;16.85;79.33
69546;SHT31;56766;52.260;20.746;2022-09-09T16:22:01;16.75;79.53
69546;SHT31;56766;52.260;20.746;2022-09-09T16:24:27;16.67;79.65
69546;SHT31;56766;52.260;20.746;2022-09-09T16:26:55;16.67;79.70
69546;SHT31;56766;52.260;20.746;2022-09-09T16:29:23;16.71;79.72
69546;SHT31;56766;52.260;20.746;2022-09-09T16:31:50;16.71;79.72
69546;SHT31;56766;52.260;20.746;2022-09-09T16:34:18;16.66;79.84
69546;SHT31;56766;52.260;20.746;2022-09-09T16:36:47;16.65;79.88
69546;SHT31;56766;52.260;20.746;2022-09-09T16:39:17;16.61;79.80
69546;SHT31;56766;52.260;20.746;2022-09-09T16:41:47;16.57;79.91
69546;SHT31;56766;52.260;20.746;2022-09-09T16:44:16;16.52;80.04
69546;SHT31;56766;52.260;20.746;2022-09-09T16:46:47;16.53;80.04
69546;SHT31;56766;52.260;20.746;2022-09-09T16:49:18;16.48;80.20
69546;SHT31;56766;52.260;20.746;2022-09-09T16:51:47;16.33;80.30
69546;SHT31;56766;52.260;20.746;2022-09-09T16:54:16;16.26;80.51
69546;SHT31;56766;52.260;20.746;2022-09-09T16:56:46;16.22;80.65
69546;SHT31;56766;52.260;20.746;2022-09-09T16:59:17;16.24;80.69
69546;SHT31;56766;52.260;20.746;2022-09-09T17:01:47;16.24;80.59
69546;SHT31;56766;52.260;20.746;2022-09-09T17:04:18;16.19;80.65
69546;SHT31;56766;52.260;20.746;2022-09-09T17:06:50;16.13;80.63
69546;SHT31;56766;52.260;20.746;2022-09-09T17:09:20;16.12;80.75
69546;SHT31;56766;52.260;20.746;2022-09-09T17:11:49;16.13;80.78
69546;SHT31;56766;52.260;20.746;2022-09-09T17:14:21;16.13;80.80
69546;SHT31;56766;52.260;20.746;2022-09-09T17:16:50;16.13;80.83
69546;SHT31;56766;52.260;20.746;2022-09-09T17:19:17;16.09;80.85
69546;SHT31;56766;52.260;20.746;2022-09-09T17:21:44;16.06;81.00
69546;SHT31;56766;52.260;20.746;2022-09-09T17:24:13;15.98;81.11
69546;SHT31;56766;52.260;20.746;2022-09-09T17:26:42;15.98;81.16
69546;SHT31;56766;52.260;20.746;2022-09-09T17:29:09;15.97;81.32
69546;SHT31;56766;52.260;20.746;2022-09-09T17:31:37;15.94;81.38
69546;SHT31;56766;52.260;20.746;2022-09-09T17:34:04;15.91;81.42
69546;SHT31;56766;52.260;20.746;2022-09-09T17:36:33;15.88;81.52
69546;SHT31;56766;52.260;20.746;2022-09-09T17:39:01;15.87;81.59
69546;SHT31;56766;52.260;20.746;2022-09-09T17:41:38;15.86;81.68
69546;SHT31;56766;52.260;20.746;2022-09-09T17:44:07;15.85;81.78
69546;SHT31;56766;52.260;20.746;2022-09-09T17:46:38;15.87;81.75
69546;SHT31;56766;52.260;20.746;2022-09-09T17:49:12;15.86;81.77
69546;SHT31;56766;52.260;20.746;2022-09-09T17:51:42;15.83;81.82
69546;SHT31;56766;52.260;20.746;2022-09-09T17:54:16;15.82;81.88
69546;SHT31;56766;52.260;20.746;2022-09-09T17:56:46;15.81;81.85
69546;SHT31;56766;52.260;20.746;2022-09-09T17:59:15;15.83;81.87